sensor_id;sensor_type;location;lat;lon;timestamp;P1;durP1;ratioP1;P2;durP2;ratioP2
55913;SDS011;58179;48.776;9.124;2023-08-21T00:01:55;4.00;;;3.53;;
55913;SDS011;58179;48.776;9.124;2023-08-21T00:04:21;3.88;;;3.38;;
55913;SDS011;58179;48.776;9.124;2023-08-21T00:06:47;4.80;;;3.40;;
55913;SDS011;58179;48.776;9.124;2023-08-21T00:09:15;3.88;;;3.20;;
55913;SDS011;58179;48.776;9.124;2023-08-21T00:11:41;5.63;;;3.70;;
55913;SDS011;58179;48.776;9.124;2023-08-21T00:14:07;4.78;;;3.70;;
55913;SDS011;58179;48.776;9.124;2023-08-21T00:16:33;5.78;;;3.50;;
55913;SDS011;58179;48.776;9.124;2023-08-21T00:19:00;5.23;;;3.67;;
55913;SDS011;58179;48.776;9.124;2023-08-21T00:21:26;3.65;;;3.13;;
55913;SDS011;58179;48.776;9.124;2023-08-21T00:23:52;3.60;;;3.13;;
55913;SDS011;58179;48.776;9.124;2023-08-21T00:26:19;9.30;;;3.70;;
55913;SDS011;58179;48.776;9.124;2023-08-21T00:28:46;4.93;;;3.47;;
55913;SDS011;58179;48.776;9.124;2023-08-21T00:31:12;3.67;;;2.92;;
55913;SDS011;58179;48.776;9.124;2023-08-21T00:33:38;6.38;;;3.85;;
55913;SDS011;58179;48.776;9.124;2023-08-21T00:36:04;6.40;;;3.25;;
55913;SDS011;58179;48.776;9.124;2023-08-21T00:38:30;5.40;;;3.60;;
55913;SDS011;58179;48.776;9.124;2023-08-21T00:40:57;3.80;;;3.33;;
55913;SDS011;58179;48.776;9.124;2023-08-21T00:43:24;3.70;;;3.20;;
55913;SDS011;58179;48.776;9.124;2023-08-21T00:45:50;4.15;;;3.58;;
55913;SDS011;58179;48.776;9.124;2023-08-21T00:48:17;5.07;;;3.50;;
55913;SDS011;58179;48.776;9.124;2023-08-21T00:50:44;4.82;;;4.25;;
55913;SDS011;58179;48.776;9.124;2023-08-21T00:53:11;4.82;;;3.75;;
55913;SDS011;58179;48.776;9.124;2023-08-21T00:55:37;4.88;;;3.58;;
55913;SDS011;58179;48.776;9.124;2023-08-21T00:58:04;4.60;;;3.80;;
55913;SDS011;58179;48.776;9.124;2023-08-21T01:00:32;5.38;;;3.88;;
55913;SDS011;58179;48.776;9.124;2023-08-21T01:03:00;4.95;;;3.78;;
55913;SDS011;58179;48.776;9.124;2023-08-21T01:05:26;4.68;;;3.70;;
55913;SDS011;58179;48.776;9.124;2023-08-21T01:07:53;5.80;;;3.55;;
55913;SDS011;58179;48.776;9.124;2023-08-21T01:10:29;7.72;;;3.63;;
55913;SDS011;58179;48.776;9.124;2023-08-21T01:13:05;4.38;;;3.75;;
55913;SDS011;58179;48.776;9.124;2023-08-21T01:15:38;5.32;;;3.72;;
55913;SDS011;58179;48.776;9.124;2023-08-21T01:18:04;5.18;;;3.50;;
55913;SDS011;58179;48.776;9.124;2023-08-21T01:20:32;6.97;;;3.90;;
55913;SDS011;58179;48.776;9.124;2023-08-21T01:23:02;5.50;;;4.00;;
55913;SDS011;58179;48.776;9.124;2023-08-21T01:25:32;3.65;;;3.33;;
55913;SDS011;58179;48.776;9.124;2023-08-21T01:27:58;4.22;;;3.58;;
55913;SDS011;58179;48.776;9.124;2023-08-21T01:30:25;4.97;;;3.80;;
55913;SDS011;58179;48.776;9.124;2023-08-21T01:32:56;4.65;;;3.78;;
55913;SDS011;58179;48.776;9.124;2023-08-21T01:35:27;5.63;;;3.85;;
55913;SDS011;58179;48.776;9.124;2023-08-21T01:37:55;4.95;;;3.92;;
55913;SDS011;58179;48.776;9.124;2023-08-21T01:40:21;4.90;;;3.75;;
55913;SDS011;58179;48.776;9.124;2023-08-21T01:42:49;5.07;;;3.70;;
55913;SDS011;58179;48.776;9.124;2023-08-21T01:45:17;4.45;;;3.67;;
55913;SDS011;58179;48.776;9.124;2023-08-21T01:47:43;4.53;;;3.65;;
55913;SDS011;58179;48.776;9.124;2023-08-21T01:50:09;4.70;;;3.65;;
55913;SDS011;58179;48.776;9.124;2023-08-21T01:52:36;4.63;;;3.80;;
55913;SDS011;58179;48.776;9.124;2023-08-21T01:55:02;5.38;;;3.75;;
55913;SDS011;58179;48.776;9.124;2023-08-21T01:57:33;5.73;;;4.30;;
55913;SDS011;58179;48.776;9.124;2023-08-21T02:00:00;5.70;;;4.28;;
55913;SDS011;58179;48.776;9.124;2023-08-21T02:02:28;4.35;;;3.90;;
55913;SDS011;58179;48.776;9.124;2023-08-21T02:04:54;4.28;;;3.70;;
55913;SDS011;58179;48.776;9.124;2023-08-21T02:07:22;4.50;;;3.72;;
55913;SDS011;58179;48.776;9.124;2023-08-21T02:09:48;4.00;;;3.60;;
55913;SDS011;58179;48.776;9.124;2023-08-21T02:12:14;5.30;;;3.63;;
55913;SDS011;58179;48.776;9.124;2023-08-21T02:14:40;4.13;;;3.40;;
55913;SDS011;58179;48.776;9.124;2023-08-21T02:17:08;5.77;;;3.57;;
55913;SDS011;58179;48.776;9.124;2023-08-21T02:19:34;3.65;;;3.30;;
55913;SDS011;58179;48.776;9.124;2023-08-21T02:22:00;4.38;;;3.85;;
55913;SDS011;58179;48.776;9.124;2023-08-21T02:24:26;4.60;;;3.90;;
55913;SDS011;58179;48.776;9.124;2023-08-21T02:26:53;4.18;;;3.63;;
55913;SDS011;58179;48.776;9.124;2023-08-21T02:29:19;4.65;;;3.83;;
55913;SDS011;58179;48.776;9.124;2023-08-21T02:31:45;4.05;;;3.47;;
55913;SDS011;58179;48.776;9.124;2023-08-21T02:34:13;5.07;;;3.75;;
55913;SDS011;58179;48.776;9.124;2023-08-21T02:36:39;6.10;;;4.28;;
55913;SDS011;58179;48.776;9.124;2023-08-21T02:39:05;4.47;;;3.83;;
55913;SDS011;58179;48.776;9.124;2023-08-21T02:41:31;6.60;;;4.80;;
55913;SDS011;58179;48.776;9.124;2023-08-21T02:43:57;5.13;;;4.30;;
55913;SDS011;58179;48.776;9.124;2023-08-21T02:46:23;4.57;;;3.67;;
55913;SDS011;58179;48.776;9.124;2023-08-21T02:48:49;5.38;;;4.00;;
55913;SDS011;58179;48.776;9.124;2023-08-21T02:51:17;4.50;;;3.90;;
55913;SDS011;58179;48.776;9.124;2023-08-21T02:53:44;4.45;;;3.72;;
55913;SDS011;58179;48.776;9.124;2023-08-21T02:56:10;4.53;;;3.78;;
55913;SDS011;58179;48.776;9.124;2023-08-21T02:58:36;4.53;;;3.60;;
55913;SDS011;58179;48.776;9.124;2023-08-21T03:01:02;4.50;;;3.85;;
55913;SDS011;58179;48.776;9.124;2023-08-21T03:03:28;4.45;;;3.65;;
55913;SDS011;58179;48.776;9.124;2023-08-21T03:05:55;5.80;;;4.28;;
55913;SDS011;58179;48.776;9.124;2023-08-21T03:08:22;4.90;;;3.85;;
55913;SDS011;58179;48.776;9.124;2023-08-21T03:10:48;6.00;;;4.10;;
55913;SDS011;58179;48.776;9.124;2023-08-21T03:13:14;4.20;;;3.42;;
55913;SDS011;58179;48.776;9.124;2023-08-21T03:15:41;4.13;;;3.60;;
55913;SDS011;58179;48.776;9.124;2023-08-21T03:18:07;4.50;;;3.83;;
55913;SDS011;58179;48.776;9.124;2023-08-21T03:20:33;7.53;;;4.95;;
55913;SDS011;58179;48.776;9.124;2023-08-21T03:22:59;4.45;;;3.60;;
55913;SDS011;58179;48.776;9.124;2023-08-21T03:25:27;4.00;;;3.40;;
55913;SDS011;58179;48.776;9.124;2023-08-21T03:27:53;5.32;;;3.97;;
55913;SDS011;58179;48.776;9.124;2023-08-21T03:30:19;4.57;;;3.83;;
55913;SDS011;58179;48.776;9.124;2023-08-21T03:32:46;8.25;;;4.28;;
55913;SDS011;58179;48.776;9.124;2023-08-21T03:35:12;6.38;;;3.80;;
55913;SDS011;58179;48.776;9.124;2023-08-21T03:37:38;5.63;;;4.10;;
55913;SDS011;58179;48.776;9.124;2023-08-21T03:40:05;5.53;;;4.45;;
55913;SDS011;58179;48.776;9.124;2023-08-21T03:42:33;5.38;;;4.13;;
55913;SDS011;58179;48.776;9.124;2023-08-21T03:45:00;4.80;;;3.90;;
55913;SDS011;58179;48.776;9.124;2023-08-21T03:47:28;4.40;;;3.63;;
55913;SDS011;58179;48.776;9.124;2023-08-21T03:49:55;4.03;;;3.55;;
55913;SDS011;58179;48.776;9.124;2023-08-21T03:52:21;5.38;;;4.28;;
55913;SDS011;58179;48.776;9.124;2023-08-21T03:54:47;6.57;;;4.38;;
55913;SDS011;58179;48.776;9.124;2023-08-21T03:57:13;5.33;;;4.10;;
55913;SDS011;58179;48.776;9.124;2023-08-21T03:59:41;5.63;;;4.30;;
55913;SDS011;58179;48.776;9.124;2023-08-21T04:02:07;4.75;;;3.80;;
55913;SDS011;58179;48.776;9.124;2023-08-21T04:04:33;4.25;;;3.85;;
55913;SDS011;58179;48.776;9.124;2023-08-21T04:06:59;5.38;;;4.05;;
55913;SDS011;58179;48.776;9.124;2023-08-21T04:09:26;4.60;;;3.78;;
55913;SDS011;58179;48.776;9.124;2023-08-21T04:11:52;6.13;;;4.20;;
55913;SDS011;58179;48.776;9.124;2023-08-21T04:14:18;5.40;;;4.22;;
55913;SDS011;58179;48.776;9.124;2023-08-21T04:16:45;4.50;;;3.80;;
55913;SDS011;58179;48.776;9.124;2023-08-21T04:19:12;4.32;;;3.85;;
55913;SDS011;58179;48.776;9.124;2023-08-21T04:21:38;5.82;;;4.22;;
55913;SDS011;58179;48.776;9.124;2023-08-21T04:24:04;4.73;;;3.87;;
55913;SDS011;58179;48.776;9.124;2023-08-21T04:26:30;5.50;;;4.38;;
55913;SDS011;58179;48.776;9.124;2023-08-21T04:28:57;4.13;;;3.60;;
55913;SDS011;58179;48.776;9.124;2023-08-21T04:31:23;4.97;;;3.83;;
55913;SDS011;58179;48.776;9.124;2023-08-21T04:33:50;5.57;;;4.28;;
55913;SDS011;58179;48.776;9.124;2023-08-21T04:36:17;5.82;;;4.25;;
55913;SDS011;58179;48.776;9.124;2023-08-21T04:38:43;4.63;;;4.15;;
55913;SDS011;58179;48.776;9.124;2023-08-21T04:41:09;5.95;;;4.43;;
55913;SDS011;58179;48.776;9.124;2023-08-21T04:43:36;6.43;;;4.43;;
55913;SDS011;58179;48.776;9.124;2023-08-21T04:46:02;5.15;;;4.15;;
55913;SDS011;58179;48.776;9.124;2023-08-21T04:48:30;6.10;;;4.00;;
55913;SDS011;58179;48.776;9.124;2023-08-21T04:50:58;4.60;;;3.90;;
55913;SDS011;58179;48.776;9.124;2023-08-21T04:53:24;4.15;;;3.60;;
55913;SDS011;58179;48.776;9.124;2023-08-21T04:55:50;4.13;;;3.53;;
55913;SDS011;58179;48.776;9.124;2023-08-21T04:58:16;4.10;;;3.47;;
55913;SDS011;58179;48.776;9.124;2023-08-21T05:00:44;7.03;;;4.00;;
55913;SDS011;58179;48.776;9.124;2023-08-21T05:03:11;6.60;;;4.10;;
55913;SDS011;58179;48.776;9.124;2023-08-21T05:05:37;6.32;;;4.55;;
55913;SDS011;58179;48.776;9.124;2023-08-21T05:08:05;4.68;;;4.10;;
55913;SDS011;58179;48.776;9.124;2023-08-21T05:10:31;6.78;;;4.22;;
55913;SDS011;58179;48.776;9.124;2023-08-21T05:12:57;7.15;;;4.30;;
55913;SDS011;58179;48.776;9.124;2023-08-21T05:15:24;4.82;;;3.75;;
55913;SDS011;58179;48.776;9.124;2023-08-21T05:17:50;4.75;;;3.83;;
55913;SDS011;58179;48.776;9.124;2023-08-21T05:20:16;5.18;;;4.30;;
55913;SDS011;58179;48.776;9.124;2023-08-21T05:22:43;4.45;;;3.85;;
55913;SDS011;58179;48.776;9.124;2023-08-21T05:25:10;5.07;;;3.70;;
55913;SDS011;58179;48.776;9.124;2023-08-21T05:27:37;4.65;;;3.80;;
55913;SDS011;58179;48.776;9.124;2023-08-21T05:30:03;3.93;;;3.23;;
55913;SDS011;58179;48.776;9.124;2023-08-21T05:32:30;4.20;;;3.53;;
55913;SDS011;58179;48.776;9.124;2023-08-21T05:34:57;3.80;;;3.40;;
55913;SDS011;58179;48.776;9.124;2023-08-21T05:37:23;3.93;;;3.33;;
55913;SDS011;58179;48.776;9.124;2023-08-21T05:39:49;3.97;;;3.33;;
55913;SDS011;58179;48.776;9.124;2023-08-21T05:42:17;4.32;;;3.42;;
55913;SDS011;58179;48.776;9.124;2023-08-21T05:44:43;4.35;;;3.50;;
55913;SDS011;58179;48.776;9.124;2023-08-21T05:47:09;4.18;;;3.65;;
55913;SDS011;58179;48.776;9.124;2023-08-21T05:49:35;5.72;;;3.88;;
55913;SDS011;58179;48.776;9.124;2023-08-21T05:52:02;4.90;;;3.65;;
55913;SDS011;58179;48.776;9.124;2023-08-21T05:54:28;5.40;;;3.50;;
55913;SDS011;58179;48.776;9.124;2023-08-21T05:56:55;5.68;;;4.20;;
55913;SDS011;58179;48.776;9.124;2023-08-21T05:59:31;4.20;;;3.70;;
55913;SDS011;58179;48.776;9.124;2023-08-21T06:01:57;7.18;;;4.00;;
55913;SDS011;58179;48.776;9.124;2023-08-21T06:04:23;5.60;;;3.65;;
55913;SDS011;58179;48.776;9.124;2023-08-21T06:06:50;4.03;;;3.55;;
55913;SDS011;58179;48.776;9.124;2023-08-21T06:09:16;3.88;;;3.20;;
55913;SDS011;58179;48.776;9.124;2023-08-21T06:11:42;3.67;;;3.00;;
55913;SDS011;58179;48.776;9.124;2023-08-21T06:14:08;4.35;;;3.63;;
55913;SDS011;58179;48.776;9.124;2023-08-21T06:16:36;4.28;;;3.33;;
55913;SDS011;58179;48.776;9.124;2023-08-21T06:19:02;3.90;;;3.15;;
55913;SDS011;58179;48.776;9.124;2023-08-21T06:21:28;4.53;;;3.58;;
55913;SDS011;58179;48.776;9.124;2023-08-21T06:23:54;4.25;;;3.60;;
55913;SDS011;58179;48.776;9.124;2023-08-21T06:26:20;4.80;;;3.70;;
55913;SDS011;58179;48.776;9.124;2023-08-21T06:28:47;5.13;;;3.60;;
55913;SDS011;58179;48.776;9.124;2023-08-21T06:31:13;5.55;;;4.00;;
55913;SDS011;58179;48.776;9.124;2023-08-21T06:33:41;4.65;;;3.67;;
55913;SDS011;58179;48.776;9.124;2023-08-21T06:36:07;4.20;;;3.55;;
55913;SDS011;58179;48.776;9.124;2023-08-21T06:38:33;5.45;;;4.28;;
55913;SDS011;58179;48.776;9.124;2023-08-21T06:40:59;5.50;;;3.60;;
55913;SDS011;58179;48.776;9.124;2023-08-21T06:43:25;4.80;;;3.85;;
55913;SDS011;58179;48.776;9.124;2023-08-21T06:45:51;4.68;;;3.40;;
55913;SDS011;58179;48.776;9.124;2023-08-21T06:48:18;4.43;;;3.50;;
55913;SDS011;58179;48.776;9.124;2023-08-21T06:50:46;4.63;;;3.75;;
55913;SDS011;58179;48.776;9.124;2023-08-21T06:53:12;4.35;;;3.70;;
55913;SDS011;58179;48.776;9.124;2023-08-21T06:55:38;3.78;;;3.28;;
55913;SDS011;58179;48.776;9.124;2023-08-21T06:58:04;3.90;;;3.40;;
55913;SDS011;58179;48.776;9.124;2023-08-21T07:00:30;4.30;;;3.50;;
55913;SDS011;58179;48.776;9.124;2023-08-21T07:02:57;4.90;;;3.80;;
55913;SDS011;58179;48.776;9.124;2023-08-21T07:05:23;4.47;;;3.75;;
55913;SDS011;58179;48.776;9.124;2023-08-21T07:07:51;4.40;;;3.83;;
55913;SDS011;58179;48.776;9.124;2023-08-21T07:10:18;4.18;;;3.67;;
55913;SDS011;58179;48.776;9.124;2023-08-21T07:12:44;5.80;;;3.55;;
55913;SDS011;58179;48.776;9.124;2023-08-21T07:15:10;3.97;;;3.30;;
55913;SDS011;58179;48.776;9.124;2023-08-21T07:17:37;4.53;;;3.60;;
55913;SDS011;58179;48.776;9.124;2023-08-21T07:20:03;4.22;;;3.60;;
55913;SDS011;58179;48.776;9.124;2023-08-21T07:22:30;4.10;;;3.50;;
55913;SDS011;58179;48.776;9.124;2023-08-21T07:24:58;4.30;;;3.50;;
55913;SDS011;58179;48.776;9.124;2023-08-21T07:27:28;3.40;;;3.10;;
55913;SDS011;58179;48.776;9.124;2023-08-21T07:29:55;4.60;;;3.42;;
55913;SDS011;58179;48.776;9.124;2023-08-21T07:32:21;3.70;;;3.20;;
55913;SDS011;58179;48.776;9.124;2023-08-21T07:34:48;3.53;;;3.05;;
55913;SDS011;58179;48.776;9.124;2023-08-21T07:37:18;3.60;;;3.05;;
55913;SDS011;58179;48.776;9.124;2023-08-21T07:39:44;3.78;;;3.35;;
55913;SDS011;58179;48.776;9.124;2023-08-21T07:42:12;4.87;;;3.57;;
55913;SDS011;58179;48.776;9.124;2023-08-21T07:44:38;3.53;;;3.05;;
55913;SDS011;58179;48.776;9.124;2023-08-21T07:47:04;3.47;;;3.17;;
55913;SDS011;58179;48.776;9.124;2023-08-21T07:49:31;4.20;;;3.30;;
55913;SDS011;58179;48.776;9.124;2023-08-21T07:51:58;3.85;;;3.33;;
55913;SDS011;58179;48.776;9.124;2023-08-21T07:54:24;4.43;;;3.30;;
55913;SDS011;58179;48.776;9.124;2023-08-21T07:56:50;4.25;;;3.30;;
55913;SDS011;58179;48.776;9.124;2023-08-21T07:59:18;3.13;;;2.83;;
55913;SDS011;58179;48.776;9.124;2023-08-21T08:01:45;3.47;;;3.17;;
55913;SDS011;58179;48.776;9.124;2023-08-21T08:04:11;3.67;;;3.25;;
55913;SDS011;58179;48.776;9.124;2023-08-21T08:06:37;3.40;;;3.10;;
55913;SDS011;58179;48.776;9.124;2023-08-21T08:09:03;3.60;;;3.30;;
55913;SDS011;58179;48.776;9.124;2023-08-21T08:11:29;3.40;;;3.00;;
55913;SDS011;58179;48.776;9.124;2023-08-21T08:13:55;3.35;;;2.92;;
55913;SDS011;58179;48.776;9.124;2023-08-21T08:16:23;3.50;;;3.00;;
55913;SDS011;58179;48.776;9.124;2023-08-21T08:18:49;4.13;;;3.67;;
55913;SDS011;58179;48.776;9.124;2023-08-21T08:21:15;5.30;;;3.22;;
55913;SDS011;58179;48.776;9.124;2023-08-21T08:23:42;3.35;;;3.00;;
55913;SDS011;58179;48.776;9.124;2023-08-21T08:26:09;3.92;;;3.05;;
55913;SDS011;58179;48.776;9.124;2023-08-21T08:28:35;5.20;;;3.40;;
55913;SDS011;58179;48.776;9.124;2023-08-21T08:31:01;3.50;;;3.20;;
55913;SDS011;58179;48.776;9.124;2023-08-21T08:33:28;4.10;;;3.30;;
55913;SDS011;58179;48.776;9.124;2023-08-21T08:35:55;4.10;;;3.30;;
55913;SDS011;58179;48.776;9.124;2023-08-21T08:38:21;5.13;;;4.07;;
55913;SDS011;58179;48.776;9.124;2023-08-21T08:40:47;5.32;;;4.00;;
55913;SDS011;58179;48.776;9.124;2023-08-21T08:43:15;5.03;;;3.83;;
55913;SDS011;58179;48.776;9.124;2023-08-21T08:45:43;5.63;;;3.78;;
55913;SDS011;58179;48.776;9.124;2023-08-21T08:48:12;5.32;;;3.70;;
55913;SDS011;58179;48.776;9.124;2023-08-21T08:50:39;4.97;;;4.15;;
55913;SDS011;58179;48.776;9.124;2023-08-21T08:53:07;4.28;;;3.40;;
55913;SDS011;58179;48.776;9.124;2023-08-21T08:55:34;3.78;;;3.38;;
55913;SDS011;58179;48.776;9.124;2023-08-21T08:58:00;4.97;;;3.58;;
55913;SDS011;58179;48.776;9.124;2023-08-21T09:00:26;4.80;;;3.72;;
55913;SDS011;58179;48.776;9.124;2023-08-21T09:02:52;4.20;;;3.67;;
55913;SDS011;58179;48.776;9.124;2023-08-21T09:05:20;4.60;;;3.90;;
55913;SDS011;58179;48.776;9.124;2023-08-21T09:07:48;4.57;;;3.55;;
55913;SDS011;58179;48.776;9.124;2023-08-21T09:10:28;3.90;;;3.40;;
55913;SDS011;58179;48.776;9.124;2023-08-21T09:12:54;3.67;;;3.30;;
55913;SDS011;58179;48.776;9.124;2023-08-21T09:15:27;3.50;;;3.20;;
55913;SDS011;58179;48.776;9.124;2023-08-21T09:17:54;3.70;;;3.30;;
55913;SDS011;58179;48.776;9.124;2023-08-21T09:20:21;5.35;;;3.55;;
55913;SDS011;58179;48.776;9.124;2023-08-21T09:22:53;3.55;;;3.10;;
55913;SDS011;58179;48.776;9.124;2023-08-21T09:25:22;3.80;;;3.45;;
55913;SDS011;58179;48.776;9.124;2023-08-21T09:27:51;4.13;;;3.38;;
55913;SDS011;58179;48.776;9.124;2023-08-21T09:30:20;3.40;;;3.08;;
55913;SDS011;58179;48.776;9.124;2023-08-21T09:32:53;4.10;;;3.63;;
55913;SDS011;58179;48.776;9.124;2023-08-21T09:35:23;3.97;;;3.42;;
55913;SDS011;58179;48.776;9.124;2023-08-21T09:37:49;3.92;;;3.00;;
55913;SDS011;58179;48.776;9.124;2023-08-21T09:40:19;6.43;;;3.77;;
55913;SDS011;58179;48.776;9.124;2023-08-21T09:42:51;3.70;;;3.30;;
55913;SDS011;58179;48.776;9.124;2023-08-21T09:45:19;4.30;;;2.92;;
55913;SDS011;58179;48.776;9.124;2023-08-21T09:47:46;3.20;;;2.90;;
55913;SDS011;58179;48.776;9.124;2023-08-21T09:50:13;5.05;;;3.25;;
55913;SDS011;58179;48.776;9.124;2023-08-21T09:52:39;4.13;;;3.22;;
55913;SDS011;58179;48.776;9.124;2023-08-21T09:55:05;2.90;;;2.60;;
55913;SDS011;58179;48.776;9.124;2023-08-21T09:57:34;3.95;;;2.67;;
55913;SDS011;58179;48.776;9.124;2023-08-21T10:00:01;3.28;;;2.97;;
55913;SDS011;58179;48.776;9.124;2023-08-21T10:02:40;4.65;;;3.25;;
55913;SDS011;58179;48.776;9.124;2023-08-21T10:05:08;3.22;;;2.92;;
55913;SDS011;58179;48.776;9.124;2023-08-21T10:07:35;3.92;;;2.90;;
55913;SDS011;58179;48.776;9.124;2023-08-21T10:10:02;3.78;;;3.03;;
55913;SDS011;58179;48.776;9.124;2023-08-21T10:12:29;4.55;;;3.42;;
55913;SDS011;58179;48.776;9.124;2023-08-21T10:14:57;4.95;;;3.13;;
55913;SDS011;58179;48.776;9.124;2023-08-21T10:17:23;3.93;;;3.40;;
55913;SDS011;58179;48.776;9.124;2023-08-21T10:19:52;3.75;;;3.35;;
55913;SDS011;58179;48.776;9.124;2023-08-21T10:25:14;5.45;;;3.20;;
55913;SDS011;58179;48.776;9.124;2023-08-21T10:27:49;3.47;;;3.00;;
55913;SDS011;58179;48.776;9.124;2023-08-21T10:30:21;9.25;;;4.60;;
55913;SDS011;58179;48.776;9.124;2023-08-21T10:32:48;5.45;;;4.47;;
55913;SDS011;58179;48.776;9.124;2023-08-21T10:35:17;4.28;;;3.83;;
55913;SDS011;58179;48.776;9.124;2023-08-21T10:40:34;4.82;;;3.80;;
55913;SDS011;58179;48.776;9.124;2023-08-21T10:43:01;5.30;;;3.72;;
55913;SDS011;58179;48.776;9.124;2023-08-21T10:45:29;4.43;;;3.80;;
55913;SDS011;58179;48.776;9.124;2023-08-21T10:47:56;4.00;;;3.60;;
55913;SDS011;58179;48.776;9.124;2023-08-21T10:50:23;4.90;;;3.60;;
55913;SDS011;58179;48.776;9.124;2023-08-21T10:52:50;4.60;;;3.88;;
55913;SDS011;58179;48.776;9.124;2023-08-21T10:55:17;5.20;;;3.97;;
55913;SDS011;58179;48.776;9.124;2023-08-21T10:57:45;4.97;;;4.00;;
55913;SDS011;58179;48.776;9.124;2023-08-21T11:00:13;5.82;;;4.25;;
55913;SDS011;58179;48.776;9.124;2023-08-21T11:02:43;9.63;;;5.53;;
55913;SDS011;58179;48.776;9.124;2023-08-21T11:05:11;5.10;;;4.47;;
55913;SDS011;58179;48.776;9.124;2023-08-21T11:07:39;5.43;;;4.10;;
55913;SDS011;58179;48.776;9.124;2023-08-21T11:10:10;6.80;;;4.20;;
55913;SDS011;58179;48.776;9.124;2023-08-21T11:12:38;4.55;;;3.70;;
55913;SDS011;58179;48.776;9.124;2023-08-21T11:15:14;4.10;;;3.70;;
55913;SDS011;58179;48.776;9.124;2023-08-21T11:17:50;4.65;;;3.92;;
55913;SDS011;58179;48.776;9.124;2023-08-21T11:20:18;5.78;;;3.53;;
55913;SDS011;58179;48.776;9.124;2023-08-21T11:22:45;9.27;;;4.55;;
55913;SDS011;58179;48.776;9.124;2023-08-21T11:25:11;4.10;;;3.50;;
55913;SDS011;58179;48.776;9.124;2023-08-21T11:27:39;4.20;;;3.80;;
55913;SDS011;58179;48.776;9.124;2023-08-21T11:30:06;3.30;;;3.00;;
55913;SDS011;58179;48.776;9.124;2023-08-21T11:32:35;4.72;;;3.30;;
55913;SDS011;58179;48.776;9.124;2023-08-21T11:35:03;4.30;;;3.83;;
55913;SDS011;58179;48.776;9.124;2023-08-21T11:37:30;4.85;;;3.85;;
55913;SDS011;58179;48.776;9.124;2023-08-21T11:39:56;4.90;;;3.90;;
55913;SDS011;58179;48.776;9.124;2023-08-21T11:42:28;4.90;;;3.78;;
55913;SDS011;58179;48.776;9.124;2023-08-21T11:44:56;4.00;;;3.53;;
55913;SDS011;58179;48.776;9.124;2023-08-21T11:47:23;4.88;;;4.18;;
55913;SDS011;58179;48.776;9.124;2023-08-21T11:49:54;6.93;;;4.70;;
55913;SDS011;58179;48.776;9.124;2023-08-21T11:52:23;5.25;;;3.92;;
55913;SDS011;58179;48.776;9.124;2023-08-21T11:54:51;4.78;;;3.78;;
55913;SDS011;58179;48.776;9.124;2023-08-21T11:57:19;4.32;;;3.67;;
55913;SDS011;58179;48.776;9.124;2023-08-21T11:59:49;4.53;;;3.33;;
55913;SDS011;58179;48.776;9.124;2023-08-21T12:02:17;4.07;;;3.30;;
55913;SDS011;58179;48.776;9.124;2023-08-21T12:04:44;3.90;;;3.17;;
55913;SDS011;58179;48.776;9.124;2023-08-21T12:07:16;3.40;;;3.10;;
55913;SDS011;58179;48.776;9.124;2023-08-21T12:09:47;4.03;;;3.28;;
55913;SDS011;58179;48.776;9.124;2023-08-21T12:12:14;4.47;;;3.60;;
55913;SDS011;58179;48.776;9.124;2023-08-21T12:14:40;6.55;;;3.67;;
55913;SDS011;58179;48.776;9.124;2023-08-21T12:17:06;4.97;;;3.55;;
55913;SDS011;58179;48.776;9.124;2023-08-21T12:19:32;5.47;;;3.72;;
55913;SDS011;58179;48.776;9.124;2023-08-21T12:21:59;4.20;;;3.40;;
55913;SDS011;58179;48.776;9.124;2023-08-21T12:24:25;4.43;;;3.83;;
55913;SDS011;58179;48.776;9.124;2023-08-21T12:26:52;6.50;;;4.00;;
55913;SDS011;58179;48.776;9.124;2023-08-21T12:29:19;6.90;;;4.70;;
55913;SDS011;58179;48.776;9.124;2023-08-21T12:31:45;5.20;;;4.50;;
55913;SDS011;58179;48.776;9.124;2023-08-21T12:34:12;5.88;;;4.20;;
55913;SDS011;58179;48.776;9.124;2023-08-21T12:36:38;4.22;;;3.40;;
55913;SDS011;58179;48.776;9.124;2023-08-21T12:39:04;4.38;;;3.80;;
55913;SDS011;58179;48.776;9.124;2023-08-21T12:41:31;4.40;;;3.67;;
55913;SDS011;58179;48.776;9.124;2023-08-21T12:43:59;3.53;;;3.22;;
55913;SDS011;58179;48.776;9.124;2023-08-21T12:46:27;5.25;;;3.75;;
55913;SDS011;58179;48.776;9.124;2023-08-21T12:48:54;3.90;;;3.40;;
55913;SDS011;58179;48.776;9.124;2023-08-21T12:51:20;4.37;;;3.10;;
55913;SDS011;58179;48.776;9.124;2023-08-21T12:53:47;5.40;;;3.90;;
55913;SDS011;58179;48.776;9.124;2023-08-21T12:56:13;5.32;;;4.13;;
55913;SDS011;58179;48.776;9.124;2023-08-21T12:58:40;4.75;;;3.80;;
55913;SDS011;58179;48.776;9.124;2023-08-21T13:01:07;7.63;;;4.00;;
55913;SDS011;58179;48.776;9.124;2023-08-21T13:03:33;4.68;;;3.60;;
55913;SDS011;58179;48.776;9.124;2023-08-21T13:06:00;5.03;;;3.65;;
55913;SDS011;58179;48.776;9.124;2023-08-21T13:08:26;4.68;;;3.95;;
55913;SDS011;58179;48.776;9.124;2023-08-21T13:10:52;4.43;;;3.53;;
55913;SDS011;58179;48.776;9.124;2023-08-21T13:13:18;6.55;;;3.63;;
55913;SDS011;58179;48.776;9.124;2023-08-21T13:15:44;4.15;;;3.38;;
55913;SDS011;58179;48.776;9.124;2023-08-21T13:18:13;3.38;;;3.08;;
55913;SDS011;58179;48.776;9.124;2023-08-21T13:20:39;5.82;;;3.72;;
55913;SDS011;58179;48.776;9.124;2023-08-21T13:23:06;4.80;;;3.20;;
55913;SDS011;58179;48.776;9.124;2023-08-21T13:25:33;4.68;;;3.22;;
55913;SDS011;58179;48.776;9.124;2023-08-21T13:28:00;5.45;;;3.00;;
55913;SDS011;58179;48.776;9.124;2023-08-21T13:30:28;3.85;;;3.30;;
55913;SDS011;58179;48.776;9.124;2023-08-21T13:32:56;4.00;;;3.00;;
55913;SDS011;58179;48.776;9.124;2023-08-21T13:35:23;3.97;;;2.90;;
55913;SDS011;58179;48.776;9.124;2023-08-21T13:37:50;3.67;;;3.00;;
55913;SDS011;58179;48.776;9.124;2023-08-21T13:40:17;3.10;;;2.80;;
55913;SDS011;58179;48.776;9.124;2023-08-21T13:42:43;3.20;;;2.88;;
55913;SDS011;58179;48.776;9.124;2023-08-21T13:45:13;4.60;;;3.00;;
55913;SDS011;58179;48.776;9.124;2023-08-21T13:47:40;3.55;;;2.67;;
55913;SDS011;58179;48.776;9.124;2023-08-21T13:50:08;2.80;;;2.50;;
55913;SDS011;58179;48.776;9.124;2023-08-21T13:52:36;2.95;;;2.65;;
55913;SDS011;58179;48.776;9.124;2023-08-21T13:55:06;3.05;;;2.65;;
55913;SDS011;58179;48.776;9.124;2023-08-21T13:57:33;3.20;;;2.60;;
55913;SDS011;58179;48.776;9.124;2023-08-21T14:00:00;4.43;;;2.42;;
55913;SDS011;58179;48.776;9.124;2023-08-21T14:02:30;3.65;;;2.40;;
55913;SDS011;58179;48.776;9.124;2023-08-21T14:04:56;2.23;;;2.03;;
55913;SDS011;58179;48.776;9.124;2023-08-21T14:07:23;6.13;;;3.60;;
55913;SDS011;58179;48.776;9.124;2023-08-21T14:09:51;4.72;;;3.42;;
55913;SDS011;58179;48.776;9.124;2023-08-21T14:12:18;3.67;;;2.97;;
55913;SDS011;58179;48.776;9.124;2023-08-21T14:14:44;3.53;;;3.15;;
55913;SDS011;58179;48.776;9.124;2023-08-21T14:17:11;3.45;;;3.10;;
55913;SDS011;58179;48.776;9.124;2023-08-21T14:19:37;3.55;;;2.95;;
55913;SDS011;58179;48.776;9.124;2023-08-21T14:22:03;3.50;;;2.78;;
55913;SDS011;58179;48.776;9.124;2023-08-21T14:24:30;3.00;;;2.70;;
55913;SDS011;58179;48.776;9.124;2023-08-21T14:26:57;4.43;;;3.17;;
55913;SDS011;58179;48.776;9.124;2023-08-21T14:29:24;5.47;;;3.03;;
55913;SDS011;58179;48.776;9.124;2023-08-21T14:31:50;2.60;;;2.40;;
55913;SDS011;58179;48.776;9.124;2023-08-21T14:34:18;3.67;;;2.85;;
55913;SDS011;58179;48.776;9.124;2023-08-21T14:36:48;2.78;;;2.30;;
55913;SDS011;58179;48.776;9.124;2023-08-21T14:39:14;4.03;;;2.60;;
55913;SDS011;58179;48.776;9.124;2023-08-21T14:41:41;4.07;;;3.67;;
55913;SDS011;58179;48.776;9.124;2023-08-21T14:44:09;2.88;;;2.45;;
55913;SDS011;58179;48.776;9.124;2023-08-21T14:46:35;3.05;;;2.35;;
55913;SDS011;58179;48.776;9.124;2023-08-21T14:49:02;2.53;;;2.10;;
55913;SDS011;58179;48.776;9.124;2023-08-21T14:51:28;2.10;;;1.90;;
55913;SDS011;58179;48.776;9.124;2023-08-21T14:53:54;3.37;;;2.43;;